Alpine Airstrip, AK

10:43 AM AKDT on September 01, 2014 (GMT -0800)
Deadhorse Alpine Airstrip | Change Station
CLOSE
Current Station
Airport
Location: Deadhorse Alpine Airstrip,
Elevation: 16 ft
Nearby Weather Stations

Elev 16 ft 70.34 °N, 150.94 °W | Updated 1 hour ago

Overcast
Overcast
39 °F
Feels Like 32 °F
N
12
Wind Variable Wind from South

Today
High -- | Low -- °F
--% Chance of Precip.
Yesterday
High -- | Low -- °F
Precip. -- in
6:17 AM 9:46 PM
Waxing Crescent, 43% visible
Pressure 29.37 in
Visibility 7.0 miles
Clouds Overcast 1800 ft
Windchill 32 °F
Dew Point 36 °F
Humidity 87%
Rainfall 0.00 in
Snow Depth Not available.
UV 0 out of 12
Pollen Not available.
Air Quality Not available.
Flu Activity Not available.
METAR PALP 011657Z 18010KT 7SM OVC018 04/02 A2937

More Conditions Fewer Conditions

Pressure 29.37 in
Visibility 7.0 miles
Clouds Overcast 1800 ft
Windchill 32 °F
Dew Point 36 °F
Humidity 87%
Rainfall 0.00 in
Snow Depth Not available.
UV 0 out of 12
Pollen Not available.
Air Quality Not available.
Flu Activity Not available.
METAR PALP 011657Z 18010KT 7SM OVC018 04/02 A2937

More Conditions Fewer Conditions

10-Day Weather Forecast

Almanac

Astronomy

Sep. 01, 2014 Rise Set
Actual Time 6:17 AM AKDT 9:46 PM AKDT
Civil Twilight 5:00 AM AKDT 11:02 PM AKDT
Nautical Twilight 2:36 AM AKDT 1:31 AM AKDT
Astronomical Twilight Sun does not rise Sun does not rise
Moon 5:43 PM AKDT 9:24 PM AKDT
Length of Visible Light 18h 01m
Length of Day
15h 28m
Tomorrow will be 9m 15s shorter.
Waxing Crescent, 43% of the Moon is Illuminated
Today
Waxing Crescent
Sep 2
First Quarter
Sep 8
Full
Sep 15
Last Quarter
Sep 24
New

Today's Extremes

State Highs State Lows

Community

WunderPhotos

Upload Photos

1,749,359 photos uploaded!

Nearby

Snow Depth

Station Depth Elevation
Imnaviat Creek 0 in 3050 ft
Atigun Pass 4 in 4800 ft
Coldfoot 0 in 1040 ft
Fort Yukon 2 in 430 ft
Eagle Summit 1 in 3650 ft

Earthquake Activity

City Distance Mag. Time & Date
No recent earthquake activity has been reported nearby.
Minimum magnitude displayed is 2.5.

Coastal Water Temperatures

Place Temperature
No Stations Reporting

Nearby Weather Stations